Time;durP1;ratioP1;P1;durP2;ratioP2;P2;SDS_P1;SDS_P2;PMS_P1;PMS_P2;Temp;Humidity;BMP_temperature;BMP_pressure;BME280_temperature;BME280_humidity;BME280_pressure;Samples;Min_cycle;Max_cycle;Signal;HPM_P1;HPM_P2
2022/09/19 00:02:08;;;;;;;5.90;3.20;;;10.60;1.00;;;;;;6082127;23;20429;-81
2022/09/19 00:04:37;;;;;;;5.63;2.87;;;10.50;1.00;;;;;;6080022;23;20406;-82
2022/09/19 00:07:04;;;;;;;8.90;3.50;;;10.50;1.00;;;;;;6080867;23;20428;-82
2022/09/19 00:09:33;;;;;;;6.10;3.10;;;10.50;1.00;;;;;;6080820;23;20382;-81
2022/09/19 00:12:01;;;;;;;8.17;3.33;;;10.60;1.00;;;;;;6079995;23;20410;-82
2022/09/19 00:14:31;;;;;;;5.93;2.93;;;10.70;1.00;;;;;;6080771;23;20489;-82
2022/09/19 00:17:00;;;;;;;7.43;2.83;;;10.70;1.00;;;;;;6078747;23;20444;-82
2022/09/19 00:19:28;;;;;;;8.57;3.23;;;10.70;1.00;;;;;;6066780;23;20524;-81
2022/09/19 00:21:56;;;;;;;6.83;3.20;;;10.60;1.00;;;;;;6077318;23;20417;-81
2022/09/19 00:27:11;;;;;;;11.30;3.40;;;10.60;1.00;;;;;;6079114;23;21080;-81
2022/09/19 00:29:39;;;;;;;6.83;3.50;;;10.60;1.00;;;;;;6077015;23;20619;-80
2022/09/19 00:32:11;;;;;;;5.40;2.47;;;10.60;1.00;;;;;;6079264;23;20514;-81
2022/09/19 00:34:39;;;;;;;6.43;3.07;;;10.50;1.00;;;;;;6079071;23;20424;-81
2022/09/19 00:37:07;;;;;;;6.03;2.97;;;10.50;1.00;;;;;;6080109;23;20429;-81
2022/09/19 00:39:34;;;;;;;6.97;3.50;;;10.50;1.00;;;;;;6078733;23;20401;-79
2022/09/19 00:42:01;;;;;;;7.10;3.60;;;10.40;1.00;;;;;;6081317;23;20524;-80
2022/09/19 00:44:55;;;;;;;8.40;3.70;;;10.40;1.00;;;;;;6080670;23;20421;-80
2022/09/19 00:47:27;;;;;;;6.50;3.40;;;10.30;1.00;;;;;;6080318;23;20421;-82
2022/09/19 00:49:57;;;;;;;7.40;3.53;;;10.30;1.00;;;;;;6078061;23;20482;-80
2022/09/19 00:52:33;;;;;;;8.38;4.00;;;10.30;1.00;;;;;;6081234;23;20937;-81
2022/09/19 00:55:01;;;;;;;9.83;3.87;;;10.30;1.00;;;;;;6079756;23;20230;-81
2022/09/19 00:57:52;;;;;;;5.50;3.20;;;10.30;1.00;;;;;;6054812;23;20417;-80
2022/09/19 01:00:21;;;;;;;7.33;4.63;;;10.40;1.00;;;;;;6078926;23;20304;-80
2022/09/19 01:02:50;;;;;;;6.50;3.53;;;10.40;1.00;;;;;;6079336;23;20460;-80
2022/09/19 01:05:17;;;;;;;7.93;3.70;;;10.30;1.00;;;;;;6078273;23;21180;-79
2022/09/19 01:08:05;;;;;;;7.57;3.77;;;10.30;1.00;;;;;;6078580;23;20828;-83
2022/09/19 01:10:45;;;;;;;6.45;3.65;;;10.30;1.00;;;;;;6079259;23;20509;-80
2022/09/19 01:13:20;;;;;;;8.30;3.97;;;10.20;1.00;;;;;;6081427;23;20226;-80
2022/09/19 01:15:56;;;;;;;10.23;3.97;;;10.20;1.00;;;;;;6079943;23;20830;-81
2022/09/19 01:18:28;;;;;;;9.93;4.13;;;10.20;1.00;;;;;;6080929;23;20785;-81
2022/09/19 01:24:17;;;;;;;7.40;3.60;;;10.10;1.00;;;;;;6078204;23;20489;-80
2022/09/19 01:27:06;;;;;;;8.80;3.90;;;10.10;1.00;;;;;;6080115;23;20417;-79
2022/09/19 01:29:40;;;;;;;6.73;3.53;;;10.10;1.00;;;;;;6080035;23;21210;-79
2022/09/19 01:32:13;;;;;;;7.83;4.20;;;10.10;1.00;;;;;;6067129;23;20381;-81
2022/09/19 01:34:44;;;;;;;8.68;3.85;;;10.10;1.00;;;;;;6064195;23;20394;-81
2022/09/19 01:37:16;;;;;;;8.98;4.47;;;10.10;1.00;;;;;;6081061;23;20221;-81
2022/09/19 01:39:47;;;;;;;7.70;4.57;;;10.20;1.00;;;;;;6081129;23;20271;-80
2022/09/19 01:42:15;;;;;;;9.65;5.18;;;10.20;1.00;;;;;;6082650;23;20473;-81
2022/09/19 01:44:43;;;;;;;9.63;5.00;;;10.20;1.00;;;;;;6080183;23;20285;-81
2022/09/19 01:47:20;;;;;;;9.60;4.75;;;10.20;1.00;;;;;;6080326;23;20398;-81
2022/09/19 01:49:52;;;;;;;11.07;5.60;;;10.20;1.00;;;;;;6078339;23;20252;-81
2022/09/19 01:52:32;;;;;;;9.13;5.90;;;10.20;1.00;;;;;;6079364;23;20430;-79
2022/09/19 01:55:07;;;;;;;9.82;6.47;;;10.20;1.00;;;;;;6079273;23;20453;-81
2022/09/19 01:57:42;;;;;;;11.98;6.55;;;10.20;1.00;;;;;;6077152;23;20216;-81
2022/09/19 02:00:16;;;;;;;9.52;6.30;;;10.10;1.00;;;;;;6079981;23;20298;-80
2022/09/19 02:02:57;;;;;;;11.73;6.85;;;10.10;1.00;;;;;;6078423;23;20286;-80
2022/09/19 02:05:34;;;;;;;12.00;7.77;;;10.20;1.00;;;;;;6080147;23;20275;-79
2022/09/19 02:08:09;;;;;;;12.93;6.72;;;10.20;1.00;;;;;;6054365;23;20413;-80
2022/09/19 02:10:41;;;;;;;11.93;8.20;;;10.20;1.00;;;;;;6078241;23;20235;-81
2022/09/19 02:13:12;;;;;;;14.67;7.33;;;10.20;1.00;;;;;;6068850;23;20404;-83
2022/09/19 02:15:48;;;;;;;13.63;8.13;;;10.20;1.00;;;;;;6078494;23;20464;-81
2022/09/19 02:18:30;;;;;;;14.38;8.02;;;10.30;1.00;;;;;;6058918;23;20397;-82
2022/09/19 02:21:03;;;;;;;12.13;7.80;;;10.30;1.00;;;;;;6085120;23;20748;-80
2022/09/19 02:23:33;;;;;;;11.17;6.37;;;10.30;1.00;;;;;;6084230;23;20481;-82
2022/09/19 02:26:03;;;;;;;10.07;7.50;;;10.30;1.00;;;;;;6081196;23;20524;-82
2022/09/19 02:28:38;;;;;;;11.85;7.45;;;10.30;1.00;;;;;;6085016;23;20923;-79
2022/09/19 02:31:07;;;;;;;11.43;7.60;;;10.30;1.00;;;;;;6082416;23;20212;-81
2022/09/19 02:33:36;;;;;;;11.10;6.57;;;10.40;1.00;;;;;;6081149;23;20414;-82
2022/09/19 02:36:14;;;;;;;10.13;6.03;;;10.30;1.00;;;;;;6081474;23;20437;-80
2022/09/19 02:38:50;;;;;;;9.50;6.68;;;10.40;1.00;;;;;;6081799;23;20397;-81
2022/09/19 02:41:23;;;;;;;11.40;6.90;;;10.30;1.00;;;;;;6084255;23;20212;-80
2022/09/19 02:44:00;;;;;;;12.23;8.03;;;10.30;1.00;;;;;;6080772;23;20418;-81
2022/09/19 02:46:40;;;;;;;14.73;6.70;;;10.30;1.00;;;;;;6082183;23;20405;-81
2022/09/19 02:49:13;;;;;;;10.48;7.45;;;10.30;1.00;;;;;;6080050;23;20531;-79
2022/09/19 02:51:45;;;;;;;11.00;7.95;;;10.30;1.00;;;;;;6055955;23;21102;-80
2022/09/19 02:54:19;;;;;;;13.40;7.50;;;10.30;1.00;;;;;;6080468;23;20215;-80
2022/09/19 02:56:47;;;;;;;12.60;6.80;;;10.30;1.00;;;;;;6082493;23;20433;-80
2022/09/19 02:59:21;;;;;;;12.32;7.13;;;10.30;1.00;;;;;;6081174;23;21028;-80
2022/09/19 03:01:53;;;;;;;9.00;6.80;;;10.40;1.00;;;;;;6080029;23;20222;-80
2022/09/19 03:04:25;;;;;;;9.73;7.00;;;10.40;1.00;;;;;;6080878;23;20505;-80
2022/09/19 03:06:59;;;;;;;9.43;6.23;;;10.40;1.00;;;;;;6079761;23;21051;-80
2022/09/19 03:09:30;;;;;;;10.10;6.75;;;10.40;1.00;;;;;;6079109;23;20477;-82
2022/09/19 03:12:03;;;;;;;11.47;6.33;;;10.50;1.00;;;;;;6068686;23;20982;-80
2022/09/19 03:14:35;;;;;;;15.93;9.40;;;10.50;1.00;;;;;;6079510;23;20437;-81
2022/09/19 03:17:05;;;;;;;10.90;7.40;;;10.50;1.00;;;;;;6079398;23;20969;-80
2022/09/19 03:19:33;;;;;;;10.93;7.63;;;10.50;1.00;;;;;;6080511;23;20421;-82
2022/09/19 03:22:01;;;;;;;12.27;7.60;;;10.40;1.00;;;;;;6081227;23;20450;-80
2022/09/19 03:24:28;;;;;;;14.57;9.07;;;10.40;1.00;;;;;;6082263;23;20512;-81
2022/09/19 03:26:57;;;;;;;10.70;8.10;;;10.40;1.00;;;;;;6079396;23;20473;-80
2022/09/19 03:29:24;;;;;;;12.30;7.50;;;10.40;1.00;;;;;;6079654;23;20513;-81
2022/09/19 03:31:52;;;;;;;15.60;9.00;;;10.40;1.00;;;;;;6077685;23;20439;-80
2022/09/19 03:34:20;;;;;;;13.53;8.70;;;10.40;1.00;;;;;;6079768;23;20457;-80
2022/09/19 03:36:48;;;;;;;16.40;10.30;;;10.40;1.00;;;;;;6078145;23;20443;-79
2022/09/19 03:39:15;;;;;;;15.60;12.23;;;10.40;1.00;;;;;;6081001;23;21269;-80
2022/09/19 03:41:43;;;;;;;13.60;9.90;;;10.50;1.00;;;;;;6080291;23;20433;-80
2022/09/19 03:44:11;;;;;;;13.60;9.80;;;10.50;1.00;;;;;;6079130;23;20516;-80
2022/09/19 03:46:38;;;;;;;14.57;10.43;;;10.60;1.00;;;;;;6078515;23;20504;-79
2022/09/19 03:49:06;;;;;;;14.70;10.77;;;10.60;1.00;;;;;;6067211;23;20386;-79
2022/09/19 03:51:36;;;;;;;15.50;10.83;;;10.60;1.00;;;;;;6078759;23;20423;-80
2022/09/19 03:54:02;;;;;;;15.50;11.87;;;10.60;1.00;;;;;;6078799;23;20434;-81
2022/09/19 03:56:29;;;;;;;19.63;11.53;;;10.60;1.00;;;;;;6078719;23;20512;-80
2022/09/19 03:58:58;;;;;;;15.17;12.07;;;10.60;1.00;;;;;;6077098;23;20421;-80
2022/09/19 04:01:25;;;;;;;16.13;11.80;;;10.70;1.00;;;;;;6078086;23;20428;-80
2022/09/19 04:03:55;;;;;;;16.60;11.20;;;10.70;1.00;;;;;;6073150;23;20384;-80
2022/09/19 04:06:23;;;;;;;13.50;10.53;;;10.70;1.00;;;;;;6076241;23;20465;-80
2022/09/19 04:08:51;;;;;;;15.50;12.00;;;10.70;1.00;;;;;;6080189;23;20500;-80
2022/09/19 04:11:20;;;;;;;15.83;11.83;;;10.70;1.00;;;;;;6078939;23;20588;-79
2022/09/19 04:13:49;;;;;;;14.77;9.67;;;10.70;1.00;;;;;;6078121;23;20430;-80
2022/09/19 04:16:18;;;;;;;15.90;10.77;;;10.70;1.00;;;;;;6082577;23;20847;-84
2022/09/19 04:18:47;;;;;;;15.23;10.30;;;10.70;1.00;;;;;;6078682;23;20418;-83
2022/09/19 04:21:16;;;;;;;10.40;8.47;;;10.60;1.00;;;;;;6081820;23;20922;-83
2022/09/19 04:23:45;;;;;;;13.80;9.40;;;10.70;1.00;;;;;;6079276;23;20390;-83
2022/09/19 04:26:16;;;;;;;10.57;7.50;;;10.70;1.00;;;;;;6080305;23;20441;-83
2022/09/19 04:28:46;;;;;;;12.38;8.02;;;10.70;1.00;;;;;;6081441;23;20394;-85
2022/09/19 04:31:13;;;;;;;15.40;8.93;;;10.70;1.00;;;;;;6079277;23;20223;-84
2022/09/19 04:33:43;;;;;;;10.47;7.53;;;10.70;1.00;;;;;;6078839;23;20413;-84
2022/09/19 04:36:11;;;;;;;11.93;7.30;;;10.70;1.00;;;;;;6063024;23;20444;-84
2022/09/19 04:38:38;;;;;;;9.23;6.40;;;10.70;1.00;;;;;;6048125;23;20983;-83
2022/09/19 04:41:06;;;;;;;8.70;6.60;;;10.80;1.00;;;;;;6067101;23;20445;-83
2022/09/19 04:43:36;;;;;;;9.97;6.40;;;10.80;1.00;;;;;;6077805;23;20854;-84
2022/09/19 04:46:06;;;;;;;11.23;6.67;;;10.80;1.00;;;;;;6079481;23;20401;-83
2022/09/19 04:48:34;;;;;;;8.40;5.83;;;10.80;1.00;;;;;;6077776;23;20414;-83
2022/09/19 04:51:03;;;;;;;11.87;6.60;;;10.80;1.00;;;;;;6077557;23;20413;-83
2022/09/19 04:53:30;;;;;;;13.23;6.93;;;10.80;1.00;;;;;;6078351;23;20443;-81
2022/09/19 04:55:57;;;;;;;8.93;6.10;;;10.80;1.00;;;;;;6078251;23;20437;-82
2022/09/19 04:58:29;;;;;;;11.30;6.63;;;10.80;1.00;;;;;;6078608;23;20441;-82
2022/09/19 05:00:59;;;;;;;13.37;7.77;;;10.90;1.00;;;;;;6077361;23;20430;-83
2022/09/19 05:03:27;;;;;;;9.60;6.67;;;10.90;1.00;;;;;;6079065;23;21490;-83
2022/09/19 05:05:55;;;;;;;8.20;6.37;;;11.00;1.00;;;;;;6078897;23;20452;-85
2022/09/19 05:08:25;;;;;;;9.40;6.50;;;10.90;1.00;;;;;;6082349;23;20476;-84
2022/09/19 05:10:55;;;;;;;9.70;6.57;;;10.90;1.00;;;;;;6068222;23;20465;-85
2022/09/19 05:13:23;;;;;;;9.90;6.10;;;10.90;1.00;;;;;;6066479;23;20481;-81
2022/09/19 05:15:51;;;;;;;10.30;6.77;;;10.90;1.00;;;;;;6078368;23;20445;-83
2022/09/19 05:18:24;;;;;;;12.60;6.53;;;10.90;1.00;;;;;;6078427;23;20425;-83
2022/09/19 05:20:53;;;;;;;8.53;6.43;;;10.90;1.00;;;;;;6080993;23;20509;-83
2022/09/19 05:25:55;;;;;;;11.27;6.30;;;10.90;1.00;;;;;;6058621;23;20421;-82
2022/09/19 05:28:27;;;;;;;12.73;6.93;;;10.90;1.00;;;;;;6048259;23;20426;-80
2022/09/19 05:30:55;;;;;;;9.93;6.30;;;11.00;1.00;;;;;;6045278;23;21191;-81
2022/09/19 05:33:26;;;;;;;8.60;6.33;;;11.10;1.00;;;;;;6035714;23;20471;-81
2022/09/19 05:35:55;;;;;;;10.47;7.47;;;11.10;1.00;;;;;;6047754;23;20954;-81
2022/09/19 05:38:24;;;;;;;10.33;6.60;;;11.10;1.00;;;;;;6048691;23;20444;-79
2022/09/19 05:40:55;;;;;;;10.80;6.43;;;11.10;1.00;;;;;;6048491;23;20433;-80
2022/09/19 05:43:23;;;;;;;9.47;5.53;;;11.20;1.00;;;;;;6048912;23;20430;-80
2022/09/19 05:45:51;;;;;;;10.20;8.70;;;11.20;1.00;;;;;;6034450;23;20433;-79
2022/09/19 05:48:18;;;;;;;12.20;7.70;;;11.20;1.00;;;;;;6049187;23;20402;-83
2022/09/19 05:50:51;;;;;;;13.07;8.00;;;11.20;1.00;;;;;;6049399;23;20431;-80
2022/09/19 05:56:04;;;;;;;9.97;7.20;;;11.20;1.00;;;;;;6077800;23;20433;-81
2022/09/19 05:58:31;;;;;;;10.47;6.80;;;11.30;1.00;;;;;;6074389;23;20486;-80
2022/09/19 06:00:58;;;;;;;11.20;7.23;;;11.40;1.00;;;;;;6075310;23;20425;-82
2022/09/19 06:03:25;;;;;;;15.40;6.83;;;11.40;1.00;;;;;;6075317;23;20428;-81
2022/09/19 06:05:59;;;;;;;9.77;6.83;;;11.40;1.00;;;;;;6074676;23;20500;-82
2022/09/19 06:08:26;;;;;;;13.97;8.40;;;11.40;1.00;;;;;;6076163;23;21004;-80
2022/09/19 06:10:53;;;;;;;10.97;7.23;;;11.50;1.00;;;;;;6074497;23;20441;-81
2022/09/19 06:13:22;;;;;;;14.83;9.40;;;11.60;1.00;;;;;;6075215;23;20432;-80
2022/09/19 06:15:49;;;;;;;15.33;6.80;;;11.60;1.00;;;;;;6076874;23;20562;-82
2022/09/19 06:18:17;;;;;;;11.13;7.47;;;11.60;1.00;;;;;;6078950;23;21096;-80
2022/09/19 06:20:46;;;;;;;13.33;6.97;;;11.70;1.00;;;;;;6076266;23;20473;-81
2022/09/19 06:23:14;;;;;;;9.80;6.73;;;11.70;1.00;;;;;;6078662;23;20481;-79
2022/09/19 06:25:41;;;;;;;11.13;6.27;;;11.80;1.00;;;;;;6101775;23;21130;-81
2022/09/19 06:28:11;;;;;;;12.10;6.30;;;11.80;1.00;;;;;;6105525;23;20408;-79
2022/09/19 06:30:42;;;;;;;9.53;5.97;;;11.90;1.00;;;;;;6104210;23;21153;-79
2022/09/19 06:33:09;;;;;;;9.13;4.80;;;11.90;1.00;;;;;;6080174;23;20429;-81
2022/09/19 06:35:36;;;;;;;9.70;5.40;;;11.90;1.00;;;;;;6104900;23;20433;-81
2022/09/19 06:38:07;;;;;;;12.47;5.57;;;12.00;1.00;;;;;;6106839;23;20417;-81
2022/09/19 06:40:37;;;;;;;8.20;4.50;;;12.00;1.00;;;;;;6105557;23;20401;-80
2022/09/19 06:43:06;;;;;;;12.17;5.07;;;12.00;1.00;;;;;;6106624;23;20468;-81
2022/09/19 06:45:38;;;;;;;7.67;4.40;;;12.00;1.00;;;;;;6079764;23;20433;-80
2022/09/19 06:48:06;;;;;;;8.33;5.17;;;12.00;1.00;;;;;;6079917;23;20523;-81
2022/09/19 06:50:33;;;;;;;9.87;5.30;;;12.00;1.00;;;;;;6105585;23;20422;-80
2022/09/19 06:53:00;;;;;;;10.87;5.70;;;12.00;1.00;;;;;;6105892;23;20496;-81
2022/09/19 06:55:29;;;;;;;8.17;4.80;;;12.10;1.00;;;;;;6104782;23;20436;-83
2022/09/19 06:57:58;;;;;;;10.80;4.60;;;12.20;1.00;;;;;;6106349;23;20444;-81
2022/09/19 07:00:30;;;;;;;6.70;4.40;;;12.20;1.00;;;;;;6079024;23;20455;-80
2022/09/19 07:03:02;;;;;;;7.33;4.73;;;12.30;1.00;;;;;;6102009;23;20393;-82
2022/09/19 07:05:31;;;;;;;6.70;3.60;;;12.40;1.00;;;;;;6104595;23;20429;-82
2022/09/19 07:07:59;;;;;;;8.00;4.20;;;12.50;1.00;;;;;;6104727;23;20377;-80
2022/09/19 07:10:26;;;;;;;9.50;4.53;;;12.50;1.00;;;;;;6104922;23;20411;-80
2022/09/19 07:12:55;;;;;;;6.60;3.90;;;12.60;1.00;;;;;;6102899;23;20409;-81
2022/09/19 07:15:24;;;;;;;7.43;3.43;;;12.60;1.00;;;;;;6106700;23;20559;-83
2022/09/19 07:17:55;;;;;;;8.70;4.30;;;12.70;1.00;;;;;;6107695;23;20423;-80
2022/09/19 07:20:22;;;;;;;6.20;3.50;;;12.80;1.00;;;;;;6109469;23;20445;-82
2022/09/19 07:23:00;;;;;;;6.87;2.83;;;12.90;1.00;;;;;;6107234;23;20436;-82
2022/09/19 07:25:29;;;;;;;7.90;3.50;;;13.00;1.00;;;;;;6106196;23;20442;-84
2022/09/19 07:28:00;;;;;;;8.10;3.37;;;13.10;1.00;;;;;;6108258;23;20419;-85
2022/09/19 07:30:55;;;;;;;6.73;4.50;;;13.20;1.00;;;;;;6106947;23;20416;-84
2022/09/19 07:33:28;;;;;;;7.07;4.00;;;13.40;1.00;;;;;;6105694;23;20389;-84
2022/09/19 07:36:13;;;;;;;6.17;3.10;;;13.60;1.00;;;;;;6091253;23;20555;-85
2022/09/19 07:38:44;;;;;;;11.80;4.00;;;13.60;1.00;;;;;;6078944;23;20889;-83
2022/09/19 07:41:14;;;;;;;7.97;4.80;;;13.50;1.00;;;;;;6109551;23;20595;-86
2022/09/19 07:44:08;;;;;;;6.50;3.23;;;13.50;1.00;;;;;;6108892;23;20555;-82
2022/09/19 07:49:40;;;;;;;7.43;3.00;;;13.50;1.00;;;;;;6095809;23;20879;-84
2022/09/19 07:52:08;;;;;;;6.07;2.80;;;13.60;1.00;;;;;;6110405;23;20396;-83
2022/09/19 07:54:38;;;;;;;5.70;2.40;;;13.70;1.00;;;;;;6108654;23;20376;-84
2022/09/19 07:57:08;;;;;;;6.90;2.33;;;13.80;1.00;;;;;;6108399;23;20468;-83
2022/09/19 07:59:38;;;;;;;5.80;2.50;;;13.90;1.00;;;;;;6092335;23;20420;-82
2022/09/19 08:02:15;;;;;;;5.00;2.57;;;13.90;1.00;;;;;;6107456;23;20428;-82
2022/09/19 08:04:48;;;;;;;9.13;2.60;;;13.90;1.00;;;;;;6079021;23;20472;-83
2022/09/19 08:07:17;;;;;;;7.33;3.07;;;13.90;1.00;;;;;;6097347;23;20468;-83
2022/09/19 08:09:48;;;;;;;6.00;2.00;;;13.90;1.00;;;;;;6091259;23;20465;-85
2022/09/19 08:12:17;;;;;;;6.67;2.80;;;14.00;1.00;;;;;;6107597;23;20480;-84
2022/09/19 08:15:49;;;;;;;;;;;;;;;;;;;;;
2022/09/19 08:18:27;;;;;;;13.40;2.40;;;14.10;1.00;;;;;;5943387;23;48982;-86
2022/09/19 08:26:19;;;;;;;8.10;3.40;;;14.40;1.00;;;;;;6107182;23;20451;-85
2022/09/19 08:28:56;;;;;;;4.83;2.13;;;14.70;1.00;;;;;;6076394;23;20388;-87
2022/09/19 08:31:27;;;;;;;6.10;2.20;;;14.90;1.00;;;;;;6089162;23;20452;-86
2022/09/19 08:33:58;;;;;;;8.10;2.87;;;15.00;1.00;;;;;;6092569;23;21376;-84
2022/09/19 08:36:28;;;;;;;6.43;2.27;;;14.90;1.00;;;;;;6113013;23;20396;-85
2022/09/19 08:42:25;;;;;;;6.00;2.00;;;15.10;1.00;;;;;;6062152;23;20540;-88
2022/09/19 08:45:25;;;;;;;5.70;1.90;;;15.30;1.00;;;;;;6108215;23;20894;-81
2022/09/19 08:47:53;;;;;;;4.97;1.80;;;15.60;1.00;;;;;;6109687;23;20738;-81
2022/09/19 08:50:26;;;;;;;6.97;1.80;;;15.90;1.00;;;;;;6110124;23;20492;-82
2022/09/19 08:52:57;;;;;;;4.40;1.33;;;16.00;1.00;;;;;;6107041;23;20549;-81
2022/09/19 08:55:27;;;;;;;6.47;1.73;;;16.20;1.00;;;;;;6107632;23;21301;-82
2022/09/19 08:57:57;;;;;;;6.87;2.23;;;16.20;1.00;;;;;;6104980;23;20834;-83
2022/09/19 09:00:29;;;;;;;5.80;2.30;;;16.20;1.00;;;;;;6106056;23;20436;-83
2022/09/19 09:03:01;;;;;;;5.90;1.60;;;16.30;1.00;;;;;;6099624;23;20840;-84
2022/09/19 09:05:45;;;;;;;6.50;1.50;;;16.60;1.00;;;;;;6105778;23;20439;-84
2022/09/19 09:08:26;;;;;;;5.23;1.83;;;17.00;1.00;;;;;;6105803;23;20421;-83
2022/09/19 09:10:56;;;;;;;5.20;1.43;;;17.30;1.00;;;;;;6104334;23;20465;-83
2022/09/19 09:13:39;;;;;;;6.30;1.53;;;17.70;1.00;;;;;;6103589;23;20429;-86
2022/09/19 09:16:18;;;;;;;9.50;2.80;;;18.00;1.00;;;;;;6103915;23;20488;-83
2022/09/19 09:19:02;;;;;;;5.20;1.90;;;18.10;1.00;;;;;;6103794;23;21149;-82
2022/09/19 09:21:42;;;;;;;4.87;1.40;;;18.20;1.00;;;;;;6104045;23;20528;-81
2022/09/19 09:24:14;;;;;;;4.50;1.40;;;18.00;1.00;;;;;;6104368;23;20487;-81
2022/09/19 09:26:46;;;;;;;6.00;1.67;;;19.20;1.00;;;;;;6104694;23;20420;-81
2022/09/19 09:29:25;;;;;;;4.93;1.30;;;20.20;1.00;;;;;;6105830;23;20452;-83
2022/09/19 09:31:56;;;;;;;5.37;1.20;;;21.60;1.00;;;;;;6104761;23;20400;-82
2022/09/19 09:34:28;;;;;;;4.80;1.40;;;22.50;1.00;;;;;;6105995;23;20605;-82
2022/09/19 09:37:02;;;;;;;5.13;1.20;;;22.50;1.00;;;;;;6103187;23;20503;-83
2022/09/19 09:39:59;;;;;;;4.33;1.00;;;21.60;1.00;;;;;;6105452;23;20428;-83
2022/09/19 09:42:33;;;;;;;7.60;1.73;;;21.80;1.00;;;;;;6104998;23;20433;-82
2022/09/19 09:45:06;;;;;;;7.10;1.90;;;22.00;1.00;;;;;;6106181;23;20448;-83
2022/09/19 09:47:44;;;;;;;5.20;1.40;;;22.40;1.00;;;;;;6081219;23;20887;-83
2022/09/19 09:50:38;;;;;;;4.90;1.17;;;23.10;1.00;;;;;;6104884;23;20436;-83
2022/09/19 09:53:19;;;;;;;5.17;1.33;;;22.90;1.00;;;;;;6090404;23;20472;-83
2022/09/19 09:58:53;;;;;;;6.20;1.13;;;23.70;1.00;;;;;;6100123;23;20504;-83
2022/09/19 10:04:30;;;;;;;6.80;1.83;;;22.80;1.00;;;;;;6111176;23;20424;-77
2022/09/19 10:07:17;;;;;;;5.87;1.80;;;19.90;1.00;;;;;;6109813;23;20425;-78
2022/09/19 10:09:55;;;;;;;8.30;1.50;;;18.20;1.00;;;;;;6108457;23;20936;-78
2022/09/19 10:12:32;;;;;;;5.07;1.17;;;16.90;1.00;;;;;;6111021;23;20441;-78
2022/09/19 10:15:10;;;;;;;7.17;2.07;;;16.00;1.00;;;;;;6103087;23;20512;-77
2022/09/19 10:17:45;;;;;;;6.20;1.20;;;15.20;1.00;;;;;;6111516;23;20487;-78
2022/09/19 10:20:33;;;;;;;5.30;1.10;;;14.70;1.00;;;;;;6110828;23;21319;-79
2022/09/19 10:23:05;;;;;;;6.37;2.27;;;14.30;1.00;;;;;;6070762;23;20595;-80
2022/09/19 10:25:35;;;;;;;4.90;0.90;;;14.00;1.00;;;;;;6110036;23;20412;-79
2022/09/19 10:28:26;;;;;;;5.80;1.80;;;13.80;1.00;;;;;;6096744;23;20512;-78
2022/09/19 10:30:57;;;;;;;5.13;1.07;;;13.60;1.00;;;;;;6110223;23;20411;-82
2022/09/19 10:33:38;;;;;;;4.97;1.10;;;13.30;1.00;;;;;;6113839;23;20428;-81
2022/09/19 10:36:19;;;;;;;5.40;1.00;;;13.00;1.00;;;;;;6112791;23;20432;-81
2022/09/19 10:38:58;;;;;;;5.43;1.43;;;12.70;1.00;;;;;;6113796;23;20420;-79
2022/09/19 10:41:36;;;;;;;5.20;0.90;;;12.40;1.00;;;;;;6113516;23;20420;-81
2022/09/19 10:44:17;;;;;;;6.20;1.23;;;12.20;1.00;;;;;;6109428;23;20429;-78
2022/09/19 10:46:46;;;;;;;5.63;1.10;;;12.00;1.00;;;;;;6110828;23;20516;-80
2022/09/19 10:49:20;;;;;;;5.90;1.30;;;11.90;1.00;;;;;;6112313;23;20420;-80
2022/09/19 10:51:59;;;;;;;5.30;0.97;;;11.80;1.00;;;;;;6111425;23;20531;-80
2022/09/19 10:54:36;;;;;;;5.97;1.73;;;11.70;1.00;;;;;;6110258;23;21118;-78
2022/09/19 10:57:27;;;;;;;6.60;1.60;;;11.60;1.00;;;;;;6108307;23;20482;-76
2022/09/19 11:00:02;;;;;;;7.30;1.20;;;11.50;1.00;;;;;;6083064;23;20483;-78
2022/09/19 11:02:30;;;;;;;6.07;1.50;;;11.40;1.00;;;;;;6108527;23;20523;-77
2022/09/19 11:05:03;;;;;;;7.73;1.33;;;11.40;1.00;;;;;;6107271;23;20436;-78
2022/09/19 11:07:35;;;;;;;6.30;0.90;;;11.40;1.00;;;;;;6106740;23;20477;-78
2022/09/19 11:10:37;;;;;;;9.87;4.90;;;11.40;1.00;;;;;;6106313;23;20389;-77
2022/09/19 11:13:22;;;;;;;5.80;1.50;;;11.40;1.00;;;;;;6105287;23;20447;-78
2022/09/19 11:16:19;;;;;;;5.47;1.30;;;11.40;1.00;;;;;;6106280;23;20408;-78
2022/09/19 11:19:06;;;;;;;8.90;1.40;;;11.50;1.00;;;;;;6105402;23;20405;-78
2022/09/19 11:21:53;;;;;;;5.77;1.87;;;11.70;1.00;;;;;;6094832;23;20392;-78
2022/09/19 11:24:55;;;;;;;6.00;1.37;;;11.90;1.00;;;;;;6107446;23;20495;-77
2022/09/19 11:27:38;;;;;;;6.03;1.40;;;12.20;1.00;;;;;;6108069;23;20421;-78
2022/09/19 11:30:14;;;;;;;7.50;2.60;;;13.30;1.00;;;;;;6105219;23;20432;-78
2022/09/19 11:39:37;;;;;;;5.67;1.60;;;19.10;1.00;;;;;;6101487;23;20381;-77
2022/09/19 11:42:18;;;;;;;5.73;1.60;;;22.90;1.00;;;;;;6101047;23;20444;-77
2022/09/19 11:45:06;;;;;;;5.10;1.23;;;25.50;1.00;;;;;;6099758;23;20396;-78
2022/09/19 11:48:10;;;;;;;8.13;3.40;;;27.80;1.00;;;;;;6101717;23;20767;-77
2022/09/19 11:50:49;;;;;;;5.30;1.50;;;29.00;1.00;;;;;;6100965;23;20436;-77
2022/09/19 11:53:38;;;;;;;5.53;2.00;;;29.60;1.00;;;;;;6088158;23;20856;-78
2022/09/19 11:56:17;;;;;;;5.10;1.40;;;28.40;1.00;;;;;;6097843;23;20847;-79
2022/09/19 11:58:51;;;;;;;4.70;1.30;;;26.90;1.00;;;;;;6100521;23;20432;-77
2022/09/19 12:01:36;;;;;;;5.90;1.80;;;28.00;1.00;;;;;;6100691;23;20423;-79
2022/09/19 12:04:19;;;;;;;6.43;1.83;;;29.70;1.00;;;;;;6100139;23;20447;-78
2022/09/19 12:06:58;;;;;;;6.33;1.87;;;31.30;1.00;;;;;;6099420;23;20491;-79
2022/09/19 12:09:31;;;;;;;5.60;1.60;;;30.60;1.00;;;;;;6101225;23;20416;-78
2022/09/19 12:12:03;;;;;;;4.73;1.33;;;30.40;1.00;;;;;;6100217;23;20551;-78
2022/09/19 12:14:39;;;;;;;5.23;1.30;;;31.50;1.00;;;;;;6100805;23;20559;-77
2022/09/19 12:17:13;;;;;;;4.40;0.70;;;32.70;1.00;;;;;;6100514;23;20420;-80
2022/09/19 12:19:47;;;;;;;4.80;0.80;;;28.30;1.00;;;;;;6099301;23;20424;-78
2022/09/19 12:22:20;;;;;;;4.60;0.83;;;23.80;1.00;;;;;;6100063;23;20430;-78
2022/09/19 12:24:52;;;;;;;4.90;0.70;;;20.40;1.00;;;;;;6100619;23;20432;-77
2022/09/19 12:27:27;;;;;;;4.40;0.70;;;18.20;1.00;;;;;;6102112;23;20425;-78
2022/09/19 12:30:05;;;;;;;5.60;1.50;;;17.00;1.00;;;;;;6099429;23;20416;-77
2022/09/19 12:32:41;;;;;;;6.30;1.30;;;16.00;1.00;;;;;;6101444;23;20426;-79
2022/09/19 12:35:19;;;;;;;5.83;1.17;;;15.40;1.00;;;;;;6077253;23;20471;-77
2022/09/19 12:37:54;;;;;;;5.70;1.40;;;15.10;1.00;;;;;;6100708;23;20424;-78
2022/09/19 12:40:28;;;;;;;7.00;1.47;;;14.80;1.00;;;;;;6103213;23;20431;-78
2022/09/19 12:43:07;;;;;;;7.27;1.60;;;14.70;1.00;;;;;;6101499;23;20483;-78
2022/09/19 12:45:48;;;;;;;6.50;1.03;;;14.40;1.00;;;;;;6103191;23;20432;-78
2022/09/19 12:48:24;;;;;;;7.20;2.17;;;14.40;1.00;;;;;;6102438;23;20421;-80
2022/09/19 12:50:56;;;;;;;5.70;1.27;;;14.30;1.00;;;;;;6101444;23;20431;-77
2022/09/19 12:53:34;;;;;;;6.07;1.80;;;14.10;1.00;;;;;;6104183;23;20510;-77
2022/09/19 12:56:04;;;;;;;6.63;1.60;;;14.00;1.00;;;;;;6102571;23;20440;-79
2022/09/19 12:58:40;;;;;;;7.30;1.40;;;13.90;1.00;;;;;;6102740;23;20500;-78
2022/09/19 13:01:20;;;;;;;7.80;1.80;;;13.70;1.00;;;;;;6102883;23;20438;-78
2022/09/19 13:03:54;;;;;;;6.10;1.30;;;13.60;1.00;;;;;;6101738;23;20763;-78
2022/09/19 13:06:26;;;;;;;7.30;2.50;;;13.60;1.00;;;;;;6101996;23;21096;-78
2022/09/19 13:09:03;;;;;;;7.43;2.47;;;13.50;1.00;;;;;;6102494;23;20412;-79
2022/09/19 13:11:36;;;;;;;6.30;1.60;;;13.50;1.00;;;;;;6103214;23;20416;-78
2022/09/19 13:14:13;;;;;;;6.87;2.10;;;13.40;1.00;;;;;;6102524;23;20534;-78
2022/09/19 13:23:30;;;;;;;7.33;2.40;;;13.40;1.00;;;;;;6103321;23;20432;-78
2022/09/19 13:25:12;;;;;;;7.17;2.47;;;13.50;1.00;;;;;;6102966;23;20432;-79
2022/09/19 13:27:39;;;;;;;8.03;2.53;;;13.50;1.00;;;;;;6101647;23;20429;-78
2022/09/19 13:30:48;;;;;;;8.30;3.00;;;13.50;1.00;;;;;;6104092;23;20505;-79
2022/09/19 13:33:22;;;;;;;8.87;3.00;;;13.60;1.00;;;;;;6077510;23;20909;-78
2022/09/19 13:35:53;;;;;;;10.90;4.10;;;13.70;1.00;;;;;;6102840;23;20511;-78
2022/09/19 13:38:25;;;;;;;9.30;4.50;;;13.70;1.00;;;;;;6104069;23;20460;-77
2022/09/19 13:41:04;;;;;;;10.70;3.60;;;13.70;1.00;;;;;;6104247;23;20421;-76
2022/09/19 13:43:45;;;;;;;9.37;4.90;;;13.80;1.00;;;;;;6103979;23;20462;-81
2022/09/19 13:46:19;;;;;;;6.70;2.20;;;13.80;1.00;;;;;;6074007;23;20463;-79
2022/09/19 13:48:50;;;;;;;7.33;2.90;;;13.70;1.00;;;;;;6103342;23;20810;-78
2022/09/19 13:51:32;;;;;;;7.20;3.07;;;13.70;1.00;;;;;;6104605;23;20436;-79
2022/09/19 13:54:31;;;;;;;8.97;2.50;;;13.80;1.00;;;;;;6102303;23;20479;-82
2022/09/19 13:57:06;;;;;;;8.00;2.70;;;13.90;1.00;;;;;;6104873;23;20437;-77
2022/09/19 13:59:37;;;;;;;6.17;2.10;;;14.00;1.00;;;;;;6105068;23;20388;-78
2022/09/19 14:02:21;;;;;;;6.53;2.50;;;14.10;1.00;;;;;;6105307;23;20393;-77
2022/09/19 14:04:55;;;;;;;9.13;2.90;;;14.20;1.00;;;;;;6104158;23;20400;-78
2022/09/19 14:07:35;;;;;;;7.93;2.67;;;14.30;1.00;;;;;;6105174;23;20518;-78
2022/09/19 14:10:06;;;;;;;8.40;2.60;;;14.20;1.00;;;;;;6106367;23;20828;-78
2022/09/19 14:12:56;;;;;;;7.20;2.70;;;14.20;1.00;;;;;;6106004;23;20407;-79